sensor_id;sensor_type;location;lat;lon;timestamp;P1;durP1;ratioP1;P2;durP2;ratioP2
22965;SDS011;11649;48.090;9.754;2022-08-04T00:10:48;8.30;;;2.38;;
22965;SDS011;11649;48.090;9.754;2022-08-04T00:13:21;5.97;;;2.30;;
22965;SDS011;11649;48.090;9.754;2022-08-04T00:15:52;4.45;;;2.30;;
22965;SDS011;11649;48.090;9.754;2022-08-04T00:18:22;3.65;;;2.25;;
22965;SDS011;11649;48.090;9.754;2022-08-04T00:20:55;8.45;;;2.45;;
22965;SDS011;11649;48.090;9.754;2022-08-04T00:23:26;12.35;;;2.47;;
22965;SDS011;11649;48.090;9.754;2022-08-04T00:26:15;7.15;;;2.58;;
22965;SDS011;11649;48.090;9.754;2022-08-04T00:28:42;4.78;;;2.30;;
22965;SDS011;11649;48.090;9.754;2022-08-04T00:31:10;9.32;;;2.40;;
22965;SDS011;11649;48.090;9.754;2022-08-04T00:33:37;4.35;;;2.20;;
22965;SDS011;11649;48.090;9.754;2022-08-04T00:36:03;7.13;;;2.40;;
22965;SDS011;11649;48.090;9.754;2022-08-04T00:38:31;6.35;;;2.50;;
22965;SDS011;11649;48.090;9.754;2022-08-04T00:43:38;4.40;;;2.30;;
22965;SDS011;11649;48.090;9.754;2022-08-04T00:52:04;5.80;;;2.30;;
22965;SDS011;11649;48.090;9.754;2022-08-04T01:01:38;4.65;;;2.15;;
22965;SDS011;11649;48.090;9.754;2022-08-04T01:07:47;5.88;;;2.47;;
22965;SDS011;11649;48.090;9.754;2022-08-04T01:29:25;4.15;;;2.35;;
22965;SDS011;11649;48.090;9.754;2022-08-04T01:32:18;4.63;;;2.30;;
22965;SDS011;11649;48.090;9.754;2022-08-04T01:34:52;5.95;;;2.42;;
22965;SDS011;11649;48.090;9.754;2022-08-04T01:40:15;3.20;;;2.40;;
22965;SDS011;11649;48.090;9.754;2022-08-04T01:42:43;11.07;;;2.58;;
22965;SDS011;11649;48.090;9.754;2022-08-04T01:45:12;8.57;;;2.38;;
22965;SDS011;11649;48.090;9.754;2022-08-04T01:47:42;4.28;;;2.60;;
22965;SDS011;11649;48.090;9.754;2022-08-04T01:50:14;7.15;;;2.22;;
22965;SDS011;11649;48.090;9.754;2022-08-04T01:52:41;8.18;;;2.50;;
22965;SDS011;11649;48.090;9.754;2022-08-04T01:55:15;5.82;;;2.45;;
22965;SDS011;11649;48.090;9.754;2022-08-04T01:57:44;5.90;;;2.40;;
22965;SDS011;11649;48.090;9.754;2022-08-04T02:00:14;3.22;;;2.13;;
22965;SDS011;11649;48.090;9.754;2022-08-04T02:02:50;3.20;;;2.50;;
22965;SDS011;11649;48.090;9.754;2022-08-04T02:05:19;4.75;;;2.70;;
22965;SDS011;11649;48.090;9.754;2022-08-04T02:13:20;5.68;;;2.78;;
22965;SDS011;11649;48.090;9.754;2022-08-04T02:16:14;6.20;;;2.30;;
22965;SDS011;11649;48.090;9.754;2022-08-04T02:19:00;7.22;;;2.45;;
22965;SDS011;11649;48.090;9.754;2022-08-04T02:21:40;3.95;;;2.50;;
22965;SDS011;11649;48.090;9.754;2022-08-04T02:24:14;7.90;;;2.60;;
22965;SDS011;11649;48.090;9.754;2022-08-04T02:26:44;4.35;;;2.60;;
22965;SDS011;11649;48.090;9.754;2022-08-04T02:32:01;3.85;;;2.40;;
22965;SDS011;11649;48.090;9.754;2022-08-04T02:37:13;3.22;;;2.40;;
22965;SDS011;11649;48.090;9.754;2022-08-04T02:39:43;3.47;;;2.30;;
22965;SDS011;11649;48.090;9.754;2022-08-04T02:42:14;5.55;;;2.30;;
22965;SDS011;11649;48.090;9.754;2022-08-04T02:44:42;6.03;;;2.58;;
22965;SDS011;11649;48.090;9.754;2022-08-04T02:47:16;5.07;;;2.80;;
22965;SDS011;11649;48.090;9.754;2022-08-04T02:49:47;5.72;;;2.60;;
22965;SDS011;11649;48.090;9.754;2022-08-04T02:52:17;4.25;;;2.00;;
22965;SDS011;11649;48.090;9.754;2022-08-04T02:54:46;10.80;;;2.35;;
22965;SDS011;11649;48.090;9.754;2022-08-04T02:57:16;6.82;;;2.55;;
22965;SDS011;11649;48.090;9.754;2022-08-04T03:02:14;3.33;;;2.22;;
22965;SDS011;11649;48.090;9.754;2022-08-04T03:19:27;4.53;;;2.20;;
22965;SDS011;11649;48.090;9.754;2022-08-04T03:25:34;3.45;;;2.40;;
22965;SDS011;11649;48.090;9.754;2022-08-04T03:37:26;5.47;;;3.03;;
22965;SDS011;11649;48.090;9.754;2022-08-04T03:40:34;5.95;;;2.47;;
22965;SDS011;11649;48.090;9.754;2022-08-04T03:43:32;4.65;;;2.20;;
22965;SDS011;11649;48.090;9.754;2022-08-04T03:46:36;7.07;;;2.72;;
22965;SDS011;11649;48.090;9.754;2022-08-04T03:58:41;3.55;;;2.78;;
22965;SDS011;11649;48.090;9.754;2022-08-04T04:04:45;5.03;;;2.60;;
22965;SDS011;11649;48.090;9.754;2022-08-04T04:07:27;3.58;;;2.40;;
22965;SDS011;11649;48.090;9.754;2022-08-04T04:10:20;4.25;;;2.70;;
22965;SDS011;11649;48.090;9.754;2022-08-04T04:13:16;7.18;;;2.20;;
22965;SDS011;11649;48.090;9.754;2022-08-04T04:22:06;3.75;;;2.47;;
22965;SDS011;11649;48.090;9.754;2022-08-04T04:27:48;5.30;;;2.85;;
22965;SDS011;11649;48.090;9.754;2022-08-04T04:42:33;3.35;;;2.40;;
22965;SDS011;11649;48.090;9.754;2022-08-04T04:50:38;2.72;;;2.35;;
22965;SDS011;11649;48.090;9.754;2022-08-04T04:53:23;3.45;;;2.47;;
22965;SDS011;11649;48.090;9.754;2022-08-04T04:56:16;3.25;;;2.30;;
22965;SDS011;11649;48.090;9.754;2022-08-04T04:59:02;6.90;;;3.00;;
22965;SDS011;11649;48.090;9.754;2022-08-04T05:04:17;5.25;;;2.45;;
22965;SDS011;11649;48.090;9.754;2022-08-04T05:10:05;7.22;;;3.03;;
22965;SDS011;11649;48.090;9.754;2022-08-04T05:16:08;4.43;;;2.80;;
22965;SDS011;11649;48.090;9.754;2022-08-04T05:18:43;8.23;;;3.10;;
22965;SDS011;11649;48.090;9.754;2022-08-04T05:21:17;6.63;;;2.85;;
22965;SDS011;11649;48.090;9.754;2022-08-04T05:23:48;7.10;;;3.08;;
22965;SDS011;11649;48.090;9.754;2022-08-04T05:26:20;3.85;;;2.67;;
22965;SDS011;11649;48.090;9.754;2022-08-04T05:28:56;7.40;;;3.08;;
22965;SDS011;11649;48.090;9.754;2022-08-04T05:31:26;4.40;;;3.20;;
22965;SDS011;11649;48.090;9.754;2022-08-04T05:33:59;6.68;;;3.28;;
22965;SDS011;11649;48.090;9.754;2022-08-04T05:36:47;5.47;;;3.58;;
22965;SDS011;11649;48.090;9.754;2022-08-04T05:39:20;9.40;;;3.88;;
22965;SDS011;11649;48.090;9.754;2022-08-04T05:41:50;6.47;;;3.70;;
22965;SDS011;11649;48.090;9.754;2022-08-04T05:44:30;7.28;;;3.92;;
22965;SDS011;11649;48.090;9.754;2022-08-04T05:46:59;5.40;;;3.80;;
22965;SDS011;11649;48.090;9.754;2022-08-04T05:49:31;8.93;;;4.25;;
22965;SDS011;11649;48.090;9.754;2022-08-04T05:52:02;7.38;;;4.32;;
22965;SDS011;11649;48.090;9.754;2022-08-04T05:54:30;4.55;;;3.58;;
22965;SDS011;11649;48.090;9.754;2022-08-04T05:56:58;8.50;;;4.18;;
22965;SDS011;11649;48.090;9.754;2022-08-04T05:59:27;7.20;;;3.78;;
22965;SDS011;11649;48.090;9.754;2022-08-04T06:01:56;8.55;;;3.90;;
22965;SDS011;11649;48.090;9.754;2022-08-04T06:04:36;4.75;;;3.38;;
22965;SDS011;11649;48.090;9.754;2022-08-04T06:07:04;8.20;;;4.10;;
22965;SDS011;11649;48.090;9.754;2022-08-04T06:09:32;7.55;;;4.38;;
22965;SDS011;11649;48.090;9.754;2022-08-04T06:12:00;4.65;;;3.35;;
22965;SDS011;11649;48.090;9.754;2022-08-04T06:14:37;5.88;;;3.35;;
22965;SDS011;11649;48.090;9.754;2022-08-04T06:17:10;4.07;;;3.10;;
22965;SDS011;11649;48.090;9.754;2022-08-04T06:20:06;6.95;;;4.00;;
22965;SDS011;11649;48.090;9.754;2022-08-04T06:22:54;5.35;;;3.55;;
22965;SDS011;11649;48.090;9.754;2022-08-04T06:25:25;5.18;;;2.95;;
22965;SDS011;11649;48.090;9.754;2022-08-04T06:27:56;5.53;;;2.92;;
22965;SDS011;11649;48.090;9.754;2022-08-04T06:30:25;6.25;;;3.08;;
22965;SDS011;11649;48.090;9.754;2022-08-04T06:32:53;6.18;;;3.47;;
22965;SDS011;11649;48.090;9.754;2022-08-04T06:35:30;3.75;;;3.35;;
22965;SDS011;11649;48.090;9.754;2022-08-04T06:37:58;12.55;;;3.90;;
22965;SDS011;11649;48.090;9.754;2022-08-04T06:40:27;6.82;;;4.40;;
22965;SDS011;11649;48.090;9.754;2022-08-04T06:42:59;6.00;;;3.10;;
22965;SDS011;11649;48.090;9.754;2022-08-04T06:45:27;3.40;;;3.10;;
22965;SDS011;11649;48.090;9.754;2022-08-04T06:47:55;6.57;;;2.92;;
22965;SDS011;11649;48.090;9.754;2022-08-04T06:50:23;7.72;;;2.90;;
22965;SDS011;11649;48.090;9.754;2022-08-04T06:53:10;9.77;;;3.38;;
22965;SDS011;11649;48.090;9.754;2022-08-04T06:55:38;10.57;;;3.92;;
22965;SDS011;11649;48.090;9.754;2022-08-04T06:58:07;5.80;;;3.75;;
22965;SDS011;11649;48.090;9.754;2022-08-04T07:00:36;7.28;;;3.97;;
22965;SDS011;11649;48.090;9.754;2022-08-04T07:03:05;7.82;;;4.07;;
22965;SDS011;11649;48.090;9.754;2022-08-04T07:05:33;6.40;;;4.00;;
22965;SDS011;11649;48.090;9.754;2022-08-04T07:08:01;6.18;;;3.63;;
22965;SDS011;11649;48.090;9.754;2022-08-04T07:10:29;6.30;;;3.63;;
22965;SDS011;11649;48.090;9.754;2022-08-04T07:12:57;5.72;;;3.97;;
22965;SDS011;11649;48.090;9.754;2022-08-04T07:15:25;7.07;;;4.18;;
22965;SDS011;11649;48.090;9.754;2022-08-04T07:17:53;3.97;;;3.25;;
22965;SDS011;11649;48.090;9.754;2022-08-04T07:20:25;5.78;;;4.00;;
22965;SDS011;11649;48.090;9.754;2022-08-04T07:23:04;7.95;;;4.30;;
22965;SDS011;11649;48.090;9.754;2022-08-04T07:25:32;7.93;;;4.10;;
22965;SDS011;11649;48.090;9.754;2022-08-04T07:28:21;5.10;;;3.63;;
22965;SDS011;11649;48.090;9.754;2022-08-04T07:30:53;4.15;;;3.58;;
22965;SDS011;11649;48.090;9.754;2022-08-04T07:33:22;4.68;;;3.13;;
22965;SDS011;11649;48.090;9.754;2022-08-04T07:35:51;12.15;;;3.78;;
22965;SDS011;11649;48.090;9.754;2022-08-04T07:38:40;5.70;;;4.05;;
22965;SDS011;11649;48.090;9.754;2022-08-04T07:41:25;4.97;;;3.53;;
22965;SDS011;11649;48.090;9.754;2022-08-04T07:46:28;8.05;;;4.10;;
22965;SDS011;11649;48.090;9.754;2022-08-04T07:48:56;5.50;;;3.65;;
22965;SDS011;11649;48.090;9.754;2022-08-04T07:51:25;7.43;;;3.85;;
22965;SDS011;11649;48.090;9.754;2022-08-04T07:53:54;6.63;;;3.42;;
22965;SDS011;11649;48.090;9.754;2022-08-04T07:56:22;5.65;;;3.80;;
22965;SDS011;11649;48.090;9.754;2022-08-04T07:58:49;4.30;;;3.33;;
22965;SDS011;11649;48.090;9.754;2022-08-04T08:01:17;6.45;;;3.55;;
22965;SDS011;11649;48.090;9.754;2022-08-04T08:03:44;6.80;;;4.00;;
22965;SDS011;11649;48.090;9.754;2022-08-04T08:06:12;5.78;;;3.90;;
22965;SDS011;11649;48.090;9.754;2022-08-04T08:08:58;7.88;;;4.30;;
22965;SDS011;11649;48.090;9.754;2022-08-04T08:11:39;7.85;;;4.25;;
22965;SDS011;11649;48.090;9.754;2022-08-04T08:14:30;5.63;;;4.55;;
22965;SDS011;11649;48.090;9.754;2022-08-04T08:17:00;6.07;;;4.90;;
22965;SDS011;11649;48.090;9.754;2022-08-04T08:19:28;7.05;;;4.15;;
22965;SDS011;11649;48.090;9.754;2022-08-04T08:21:56;6.20;;;4.10;;
22965;SDS011;11649;48.090;9.754;2022-08-04T08:24:30;5.70;;;4.18;;
22965;SDS011;11649;48.090;9.754;2022-08-04T08:27:01;8.55;;;4.22;;
22965;SDS011;11649;48.090;9.754;2022-08-04T08:29:29;6.95;;;4.45;;
22965;SDS011;11649;48.090;9.754;2022-08-04T08:31:59;6.32;;;4.22;;
22965;SDS011;11649;48.090;9.754;2022-08-04T08:34:33;5.38;;;3.75;;
22965;SDS011;11649;48.090;9.754;2022-08-04T08:40:09;10.25;;;4.70;;
22965;SDS011;11649;48.090;9.754;2022-08-04T08:55:31;7.15;;;3.83;;
22965;SDS011;11649;48.090;9.754;2022-08-04T09:04:08;5.30;;;3.90;;
22965;SDS011;11649;48.090;9.754;2022-08-04T09:12:43;11.35;;;4.35;;
22965;SDS011;11649;48.090;9.754;2022-08-04T09:15:32;7.05;;;4.00;;
22965;SDS011;11649;48.090;9.754;2022-08-04T09:20:49;10.60;;;4.20;;
22965;SDS011;11649;48.090;9.754;2022-08-04T09:23:27;5.47;;;3.90;;
22965;SDS011;11649;48.090;9.754;2022-08-04T09:26:26;6.45;;;4.10;;
22965;SDS011;11649;48.090;9.754;2022-08-04T09:35:05;9.05;;;4.28;;
22965;SDS011;11649;48.090;9.754;2022-08-04T09:37:47;7.47;;;3.80;;
22965;SDS011;11649;48.090;9.754;2022-08-04T09:40:27;5.47;;;4.40;;
22965;SDS011;11649;48.090;9.754;2022-08-04T09:43:34;6.13;;;3.90;;
22965;SDS011;11649;48.090;9.754;2022-08-04T09:46:42;7.20;;;3.90;;
22965;SDS011;11649;48.090;9.754;2022-08-04T09:49:18;6.40;;;4.10;;
22965;SDS011;11649;48.090;9.754;2022-08-04T09:54:45;7.93;;;3.78;;
22965;SDS011;11649;48.090;9.754;2022-08-04T09:57:27;6.07;;;3.90;;
22965;SDS011;11649;48.090;9.754;2022-08-04T10:00:15;5.85;;;3.22;;
22965;SDS011;11649;48.090;9.754;2022-08-04T10:03:05;5.40;;;3.30;;
22965;SDS011;11649;48.090;9.754;2022-08-04T10:05:50;9.55;;;3.45;;
22965;SDS011;11649;48.090;9.754;2022-08-04T10:09:07;6.30;;;3.25;;
22965;SDS011;11649;48.090;9.754;2022-08-04T10:19:47;3.47;;;3.17;;
22965;SDS011;11649;48.090;9.754;2022-08-04T10:22:24;4.18;;;2.85;;
22965;SDS011;11649;48.090;9.754;2022-08-04T10:28:10;4.00;;;2.85;;
22965;SDS011;11649;48.090;9.754;2022-08-04T10:30:41;2.90;;;2.55;;
22965;SDS011;11649;48.090;9.754;2022-08-04T10:36:02;3.95;;;2.67;;
22965;SDS011;11649;48.090;9.754;2022-08-04T10:38:34;5.22;;;2.88;;
22965;SDS011;11649;48.090;9.754;2022-08-04T10:41:17;4.28;;;2.30;;
22965;SDS011;11649;48.090;9.754;2022-08-04T10:46:43;5.78;;;2.67;;
22965;SDS011;11649;48.090;9.754;2022-08-04T10:49:22;4.32;;;2.50;;
22965;SDS011;11649;48.090;9.754;2022-08-04T10:59:55;4.88;;;2.45;;
22965;SDS011;11649;48.090;9.754;2022-08-04T11:08:55;2.85;;;2.30;;
22965;SDS011;11649;48.090;9.754;2022-08-04T11:14:19;2.83;;;2.53;;
22965;SDS011;11649;48.090;9.754;2022-08-04T11:16:54;4.18;;;2.78;;
22965;SDS011;11649;48.090;9.754;2022-08-04T11:19:29;2.88;;;2.60;;
22965;SDS011;11649;48.090;9.754;2022-08-04T11:30:16;2.63;;;2.30;;
22965;SDS011;11649;48.090;9.754;2022-08-04T11:32:45;3.20;;;2.40;;
22965;SDS011;11649;48.090;9.754;2022-08-04T11:35:30;3.17;;;2.17;;
22965;SDS011;11649;48.090;9.754;2022-08-04T11:38:11;6.47;;;2.45;;
22965;SDS011;11649;48.090;9.754;2022-08-04T11:40:57;2.63;;;2.30;;
22965;SDS011;11649;48.090;9.754;2022-08-04T11:43:34;2.85;;;2.58;;
22965;SDS011;11649;48.090;9.754;2022-08-04T11:46:29;3.30;;;2.50;;
22965;SDS011;11649;48.090;9.754;2022-08-04T11:49:10;4.63;;;2.50;;
22965;SDS011;11649;48.090;9.754;2022-08-04T11:51:47;6.45;;;2.60;;
22965;SDS011;11649;48.090;9.754;2022-08-04T11:54:16;3.25;;;2.83;;
22965;SDS011;11649;48.090;9.754;2022-08-04T11:56:44;4.50;;;2.83;;
22965;SDS011;11649;48.090;9.754;2022-08-04T11:59:11;3.67;;;3.05;;
22965;SDS011;11649;48.090;9.754;2022-08-04T12:01:46;4.70;;;2.70;;
22965;SDS011;11649;48.090;9.754;2022-08-04T12:04:27;4.07;;;2.60;;
22965;SDS011;11649;48.090;9.754;2022-08-04T12:16:31;5.38;;;2.90;;
22965;SDS011;11649;48.090;9.754;2022-08-04T12:19:23;2.72;;;2.50;;
22965;SDS011;11649;48.090;9.754;2022-08-04T12:22:10;4.90;;;2.80;;
22965;SDS011;11649;48.090;9.754;2022-08-04T12:24:53;5.15;;;2.80;;
22965;SDS011;11649;48.090;9.754;2022-08-04T12:30:00;3.17;;;2.70;;
22965;SDS011;11649;48.090;9.754;2022-08-04T12:32:54;4.45;;;2.80;;
22965;SDS011;11649;48.090;9.754;2022-08-04T12:35:47;3.22;;;2.92;;
22965;SDS011;11649;48.090;9.754;2022-08-04T12:38:36;3.10;;;2.78;;
22965;SDS011;11649;48.090;9.754;2022-08-04T12:41:13;3.65;;;2.80;;
22965;SDS011;11649;48.090;9.754;2022-08-04T12:43:46;3.63;;;3.00;;
22965;SDS011;11649;48.090;9.754;2022-08-04T12:46:22;6.45;;;2.80;;
22965;SDS011;11649;48.090;9.754;2022-08-04T12:48:51;3.85;;;2.50;;
22965;SDS011;11649;48.090;9.754;2022-08-04T12:51:24;4.25;;;2.45;;
22965;SDS011;11649;48.090;9.754;2022-08-04T12:54:13;5.43;;;2.58;;
22965;SDS011;11649;48.090;9.754;2022-08-04T12:56:56;4.25;;;2.60;;
22965;SDS011;11649;48.090;9.754;2022-08-04T12:59:24;5.25;;;2.97;;
22965;SDS011;11649;48.090;9.754;2022-08-04T13:01:51;2.72;;;2.50;;
22965;SDS011;11649;48.090;9.754;2022-08-04T13:04:36;3.38;;;2.50;;
22965;SDS011;11649;48.090;9.754;2022-08-04T13:07:13;3.90;;;2.20;;
22965;SDS011;11649;48.090;9.754;2022-08-04T13:09:44;3.17;;;2.60;;
22965;SDS011;11649;48.090;9.754;2022-08-04T13:12:16;3.08;;;2.50;;
22965;SDS011;11649;48.090;9.754;2022-08-04T13:14:59;3.30;;;2.20;;
22965;SDS011;11649;48.090;9.754;2022-08-04T13:17:45;3.47;;;2.15;;
22965;SDS011;11649;48.090;9.754;2022-08-04T13:20:22;4.43;;;2.30;;
22965;SDS011;11649;48.090;9.754;2022-08-04T13:22:56;5.93;;;2.25;;
22965;SDS011;11649;48.090;9.754;2022-08-04T13:25:47;2.92;;;1.80;;
22965;SDS011;11649;48.090;9.754;2022-08-04T13:28:37;5.85;;;2.28;;
22965;SDS011;11649;48.090;9.754;2022-08-04T13:31:09;2.22;;;2.05;;
22965;SDS011;11649;48.090;9.754;2022-08-04T13:33:43;2.25;;;1.88;;
22965;SDS011;11649;48.090;9.754;2022-08-04T13:36:11;1.95;;;1.75;;
22965;SDS011;11649;48.090;9.754;2022-08-04T13:38:45;2.15;;;1.90;;
22965;SDS011;11649;48.090;9.754;2022-08-04T13:41:17;3.15;;;1.73;;
22965;SDS011;11649;48.090;9.754;2022-08-04T13:43:49;4.60;;;1.88;;
22965;SDS011;11649;48.090;9.754;2022-08-04T13:46:45;3.05;;;1.70;;
22965;SDS011;11649;48.090;9.754;2022-08-04T13:49:16;1.73;;;1.58;;
22965;SDS011;11649;48.090;9.754;2022-08-04T13:52:05;2.55;;;1.70;;
22965;SDS011;11649;48.090;9.754;2022-08-04T13:57:10;2.90;;;1.83;;
22965;SDS011;11649;48.090;9.754;2022-08-04T13:59:40;2.03;;;1.70;;
22965;SDS011;11649;48.090;9.754;2022-08-04T14:05:21;2.35;;;1.50;;
22965;SDS011;11649;48.090;9.754;2022-08-04T14:08:05;5.20;;;1.65;;
22965;SDS011;11649;48.090;9.754;2022-08-04T14:10:37;1.98;;;1.20;;
22965;SDS011;11649;48.090;9.754;2022-08-04T14:13:05;1.73;;;1.40;;
22965;SDS011;11649;48.090;9.754;2022-08-04T14:15:34;1.45;;;1.20;;
22965;SDS011;11649;48.090;9.754;2022-08-04T14:18:25;4.10;;;1.55;;
22965;SDS011;11649;48.090;9.754;2022-08-04T14:21:02;2.28;;;1.75;;
22965;SDS011;11649;48.090;9.754;2022-08-04T14:23:44;2.05;;;1.33;;
22965;SDS011;11649;48.090;9.754;2022-08-04T14:28:44;1.30;;;1.20;;
22965;SDS011;11649;48.090;9.754;2022-08-04T14:31:31;1.20;;;1.10;;
22965;SDS011;11649;48.090;9.754;2022-08-04T14:33:58;2.83;;;1.40;;
22965;SDS011;11649;48.090;9.754;2022-08-04T14:36:40;2.90;;;1.50;;
22965;SDS011;11649;48.090;9.754;2022-08-04T14:39:35;1.52;;;1.33;;
22965;SDS011;11649;48.090;9.754;2022-08-04T14:42:38;1.70;;;1.40;;
22965;SDS011;11649;48.090;9.754;2022-08-04T14:45:06;2.80;;;1.45;;
22965;SDS011;11649;48.090;9.754;2022-08-04T14:47:41;1.77;;;1.60;;
22965;SDS011;11649;48.090;9.754;2022-08-04T14:50:18;4.13;;;1.50;;
22965;SDS011;11649;48.090;9.754;2022-08-04T14:52:45;3.15;;;1.40;;
22965;SDS011;11649;48.090;9.754;2022-08-04T14:57:42;1.45;;;1.27;;
22965;SDS011;11649;48.090;9.754;2022-08-04T15:00:33;4.18;;;1.58;;
22965;SDS011;11649;48.090;9.754;2022-08-04T15:03:03;2.55;;;1.40;;
22965;SDS011;11649;48.090;9.754;2022-08-04T15:05:34;2.42;;;1.30;;
22965;SDS011;11649;48.090;9.754;2022-08-04T15:08:22;2.60;;;1.50;;
22965;SDS011;11649;48.090;9.754;2022-08-04T15:10:57;2.90;;;1.50;;
22965;SDS011;11649;48.090;9.754;2022-08-04T15:13:25;1.55;;;1.40;;
22965;SDS011;11649;48.090;9.754;2022-08-04T15:15:52;4.82;;;1.50;;
22965;SDS011;11649;48.090;9.754;2022-08-04T15:18:32;4.85;;;1.45;;
22965;SDS011;11649;48.090;9.754;2022-08-04T15:21:00;2.90;;;1.55;;
22965;SDS011;11649;48.090;9.754;2022-08-04T15:23:28;1.63;;;1.50;;
22965;SDS011;11649;48.090;9.754;2022-08-04T15:26:05;1.70;;;1.45;;
22965;SDS011;11649;48.090;9.754;2022-08-04T15:28:35;2.13;;;1.67;;
22965;SDS011;11649;48.090;9.754;2022-08-04T15:31:05;2.03;;;1.52;;
22965;SDS011;11649;48.090;9.754;2022-08-04T15:33:55;2.45;;;1.60;;
22965;SDS011;11649;48.090;9.754;2022-08-04T15:40:06;4.75;;;1.63;;
22965;SDS011;11649;48.090;9.754;2022-08-04T15:47:35;3.30;;;1.60;;
22965;SDS011;11649;48.090;9.754;2022-08-04T15:55:29;2.10;;;1.50;;
22965;SDS011;11649;48.090;9.754;2022-08-04T15:58:00;3.67;;;1.60;;
22965;SDS011;11649;48.090;9.754;2022-08-04T16:09:01;3.75;;;1.75;;
22965;SDS011;11649;48.090;9.754;2022-08-04T16:19:03;2.13;;;1.63;;
22965;SDS011;11649;48.090;9.754;2022-08-04T16:21:34;4.95;;;2.30;;
22965;SDS011;11649;48.090;9.754;2022-08-04T16:37:20;7.25;;;2.10;;
22965;SDS011;11649;48.090;9.754;2022-08-04T16:43:17;3.92;;;1.92;;
22965;SDS011;11649;48.090;9.754;2022-08-04T16:45:47;1.92;;;1.70;;
22965;SDS011;11649;48.090;9.754;2022-08-04T16:48:28;3.35;;;2.25;;
22965;SDS011;11649;48.090;9.754;2022-08-04T16:51:00;4.15;;;1.90;;
22965;SDS011;11649;48.090;9.754;2022-08-04T16:56:28;2.33;;;2.10;;
22965;SDS011;11649;48.090;9.754;2022-08-04T16:59:04;2.85;;;1.85;;
22965;SDS011;11649;48.090;9.754;2022-08-04T17:01:33;2.35;;;1.80;;
22965;SDS011;11649;48.090;9.754;2022-08-04T17:04:01;2.55;;;1.98;;
22965;SDS011;11649;48.090;9.754;2022-08-04T17:06:37;2.88;;;1.90;;
22965;SDS011;11649;48.090;9.754;2022-08-04T17:09:09;3.35;;;2.30;;
22965;SDS011;11649;48.090;9.754;2022-08-04T17:11:38;3.33;;;2.25;;
22965;SDS011;11649;48.090;9.754;2022-08-04T17:14:06;3.72;;;2.22;;
22965;SDS011;11649;48.090;9.754;2022-08-04T17:16:34;3.63;;;2.20;;
22965;SDS011;11649;48.090;9.754;2022-08-04T17:19:07;2.40;;;1.97;;
22965;SDS011;11649;48.090;9.754;2022-08-04T17:21:52;2.85;;;2.10;;
22965;SDS011;11649;48.090;9.754;2022-08-04T17:24:28;4.40;;;2.40;;
22965;SDS011;11649;48.090;9.754;2022-08-04T17:26:55;3.85;;;2.10;;
22965;SDS011;11649;48.090;9.754;2022-08-04T17:29:25;3.47;;;2.17;;
22965;SDS011;11649;48.090;9.754;2022-08-04T17:32:11;2.05;;;1.70;;
22965;SDS011;11649;48.090;9.754;2022-08-04T17:34:40;3.22;;;1.90;;
22965;SDS011;11649;48.090;9.754;2022-08-04T17:37:09;2.80;;;1.85;;
22965;SDS011;11649;48.090;9.754;2022-08-04T17:40:10;1.85;;;1.73;;
22965;SDS011;11649;48.090;9.754;2022-08-04T17:43:04;1.80;;;1.70;;
22965;SDS011;11649;48.090;9.754;2022-08-04T17:48:58;8.75;;;2.30;;
22965;SDS011;11649;48.090;9.754;2022-08-04T17:52:09;4.82;;;2.00;;
22965;SDS011;11649;48.090;9.754;2022-08-04T17:54:37;8.18;;;2.30;;
22965;SDS011;11649;48.090;9.754;2022-08-04T17:57:19;2.25;;;1.95;;
22965;SDS011;11649;48.090;9.754;2022-08-04T17:59:51;4.10;;;1.95;;
22965;SDS011;11649;48.090;9.754;2022-08-04T18:02:24;6.90;;;2.20;;
22965;SDS011;11649;48.090;9.754;2022-08-04T18:04:59;4.90;;;2.20;;
22965;SDS011;11649;48.090;9.754;2022-08-04T18:07:37;3.78;;;2.35;;
22965;SDS011;11649;48.090;9.754;2022-08-04T18:10:38;3.92;;;3.00;;
22965;SDS011;11649;48.090;9.754;2022-08-04T18:13:26;4.95;;;2.70;;
22965;SDS011;11649;48.090;9.754;2022-08-04T18:16:03;3.63;;;2.60;;
22965;SDS011;11649;48.090;9.754;2022-08-04T18:18:39;3.95;;;2.30;;
22965;SDS011;11649;48.090;9.754;2022-08-04T18:21:14;3.85;;;2.40;;
22965;SDS011;11649;48.090;9.754;2022-08-04T18:23:41;3.55;;;2.13;;
22965;SDS011;11649;48.090;9.754;2022-08-04T18:26:16;2.97;;;2.40;;
22965;SDS011;11649;48.090;9.754;2022-08-04T18:28:43;4.00;;;2.30;;
22965;SDS011;11649;48.090;9.754;2022-08-04T18:31:09;3.03;;;2.25;;
22965;SDS011;11649;48.090;9.754;2022-08-04T18:33:41;5.03;;;2.70;;
22965;SDS011;11649;48.090;9.754;2022-08-04T18:36:22;13.90;;;3.22;;
22965;SDS011;11649;48.090;9.754;2022-08-04T18:39:03;16.30;;;3.50;;
22965;SDS011;11649;48.090;9.754;2022-08-04T18:41:40;13.18;;;3.90;;
22965;SDS011;11649;48.090;9.754;2022-08-04T18:44:27;14.05;;;3.53;;
22965;SDS011;11649;48.090;9.754;2022-08-04T18:46:56;17.63;;;3.63;;
22965;SDS011;11649;48.090;9.754;2022-08-04T18:49:43;15.30;;;3.70;;
22965;SDS011;11649;48.090;9.754;2022-08-04T18:52:29;12.85;;;3.53;;
22965;SDS011;11649;48.090;9.754;2022-08-04T18:54:58;25.30;;;3.80;;
22965;SDS011;11649;48.090;9.754;2022-08-04T18:57:27;20.20;;;4.03;;
22965;SDS011;11649;48.090;9.754;2022-08-04T19:00:16;23.98;;;3.97;;
22965;SDS011;11649;48.090;9.754;2022-08-04T19:02:45;23.70;;;4.70;;
22965;SDS011;11649;48.090;9.754;2022-08-04T19:05:12;20.30;;;4.40;;
22965;SDS011;11649;48.090;9.754;2022-08-04T19:07:44;33.55;;;4.50;;
22965;SDS011;11649;48.090;9.754;2022-08-04T19:10:27;28.50;;;4.28;;
22965;SDS011;11649;48.090;9.754;2022-08-04T19:12:54;31.35;;;4.65;;
22965;SDS011;11649;48.090;9.754;2022-08-04T19:15:21;25.33;;;4.15;;
22965;SDS011;11649;48.090;9.754;2022-08-04T19:17:59;33.65;;;4.45;;
22965;SDS011;11649;48.090;9.754;2022-08-04T19:20:27;47.70;;;5.78;;
22965;SDS011;11649;48.090;9.754;2022-08-04T19:22:55;36.42;;;5.20;;
22965;SDS011;11649;48.090;9.754;2022-08-04T19:25:43;31.98;;;4.57;;
22965;SDS011;11649;48.090;9.754;2022-08-04T19:28:29;27.25;;;4.65;;
22965;SDS011;11649;48.090;9.754;2022-08-04T19:31:00;45.40;;;5.45;;
22965;SDS011;11649;48.090;9.754;2022-08-04T19:33:31;28.83;;;4.63;;
22965;SDS011;11649;48.090;9.754;2022-08-04T19:36:19;33.92;;;4.53;;
22965;SDS011;11649;48.090;9.754;2022-08-04T19:38:53;22.33;;;4.30;;
22965;SDS011;11649;48.090;9.754;2022-08-04T19:41:24;20.00;;;4.20;;
22965;SDS011;11649;48.090;9.754;2022-08-04T19:43:52;25.38;;;4.18;;
22965;SDS011;11649;48.090;9.754;2022-08-04T19:46:19;27.73;;;4.63;;
22965;SDS011;11649;48.090;9.754;2022-08-04T19:48:50;17.63;;;4.20;;
22965;SDS011;11649;48.090;9.754;2022-08-04T19:51:25;17.25;;;3.83;;
22965;SDS011;11649;48.090;9.754;2022-08-04T19:53:57;16.15;;;4.07;;
22965;SDS011;11649;48.090;9.754;2022-08-04T19:56:33;13.55;;;4.05;;
22965;SDS011;11649;48.090;9.754;2022-08-04T19:59:06;13.48;;;4.18;;
22965;SDS011;11649;48.090;9.754;2022-08-04T20:01:34;16.15;;;3.95;;
22965;SDS011;11649;48.090;9.754;2022-08-04T20:04:11;14.75;;;3.42;;
22965;SDS011;11649;48.090;9.754;2022-08-04T20:06:39;25.20;;;4.40;;
22965;SDS011;11649;48.090;9.754;2022-08-04T20:09:06;20.95;;;4.88;;
22965;SDS011;11649;48.090;9.754;2022-08-04T20:11:53;9.80;;;3.50;;
22965;SDS011;11649;48.090;9.754;2022-08-04T20:14:23;12.43;;;4.00;;
22965;SDS011;11649;48.090;9.754;2022-08-04T20:16:59;9.52;;;3.83;;
22965;SDS011;11649;48.090;9.754;2022-08-04T20:19:36;8.30;;;3.38;;
22965;SDS011;11649;48.090;9.754;2022-08-04T20:22:04;10.57;;;3.75;;
22965;SDS011;11649;48.090;9.754;2022-08-04T20:24:51;7.60;;;3.20;;
22965;SDS011;11649;48.090;9.754;2022-08-04T20:27:26;9.30;;;3.80;;
22965;SDS011;11649;48.090;9.754;2022-08-04T20:30:13;5.93;;;3.40;;
22965;SDS011;11649;48.090;9.754;2022-08-04T20:32:44;4.10;;;3.60;;
22965;SDS011;11649;48.090;9.754;2022-08-04T20:35:18;11.07;;;4.30;;
22965;SDS011;11649;48.090;9.754;2022-08-04T20:37:51;8.07;;;4.07;;